gordon.dewis.ca - Random musings from Gordon

Subscribe

This is probably going to suck

January 13, 2012 @ 08:59 By: gordon Category: Weather

I just took a look at the radar and this is probably going to suck:

image

Yup… (FZRA is freezing rain and FZDZ is freezing drizzle)

TAF CYOW 131138Z 1312/1412 04008KT 5SM -FZRA BR OVC006 TEMPO
1312/1314 2SM -FZDZ BR OVC003
FM131500 03006KT 2SM -SN SCT006 OVC012 TEMPO 1315/1321 1/2SM SN
VV005
BECMG 1316/1318 33010KT
FM132100 31018G28KT 3/4SM -SN BLSN OVC012 TEMPO 1321/1324 3SM -SN
FM140000 29015G25KT 11/2SM BLSN OVC020 TEMPO 1400/1404 P6SM NSW
OVC025
FM140400 30015KT P6SM OVC030
FM141000 32010KT P6SM FEW020 BKN200
RMK NXT FCST BY 131500Z=

Leave a Reply

*